createdAt,value
2024-02-29T00:00:46.289Z,1002.29
2024-02-29T00:01:45.450Z,1002.28
2024-02-29T00:02:45.302Z,1002.26
2024-02-29T00:03:45.323Z,1002.24
2024-02-29T00:04:45.378Z,1002.25
2024-02-29T00:05:45.280Z,1002.28
2024-02-29T00:06:45.283Z,1002.25
2024-02-29T00:07:45.273Z,1002.28
2024-02-29T00:08:45.290Z,1002.21
2024-02-29T00:09:45.301Z,1002.23
2024-02-29T00:10:45.304Z,1002.26
2024-02-29T00:11:45.271Z,1002.24
2024-02-29T00:12:45.271Z,1002.28
2024-02-29T00:13:45.268Z,1002.26
2024-02-29T00:14:45.259Z,1002.26
2024-02-29T00:15:45.271Z,1002.26
2024-02-29T00:16:45.254Z,1002.23
2024-02-29T00:17:45.258Z,1002.23
2024-02-29T00:18:45.280Z,1002.18
2024-02-29T00:19:45.195Z,1002.20
2024-02-29T00:20:45.218Z,1002.19
2024-02-29T00:21:45.209Z,1002.19
2024-02-29T00:22:45.218Z,1002.22
2024-02-29T00:23:45.196Z,1002.17
2024-02-29T00:24:45.197Z,1002.20
2024-02-29T00:25:45.172Z,1002.25
2024-02-29T00:26:45.265Z,1002.17
2024-02-29T00:27:45.194Z,1002.26
2024-02-29T00:28:45.144Z,1002.21
2024-02-29T00:29:45.136Z,1002.23
2024-02-29T00:30:45.202Z,1002.23
2024-02-29T00:31:45.141Z,1002.21
2024-02-29T00:32:45.174Z,1002.19
2024-02-29T00:33:45.180Z,1002.20
2024-02-29T00:34:45.088Z,1002.21
2024-02-29T00:35:49.335Z,1002.19
2024-02-29T00:36:46.248Z,1002.14
2024-02-29T00:37:45.098Z,1002.20
2024-02-29T00:38:45.084Z,1002.21
2024-02-29T00:39:45.094Z,1002.16
2024-02-29T00:40:45.150Z,1002.14
2024-02-29T00:41:45.110Z,1002.09
2024-02-29T00:42:45.091Z,1002.11
2024-02-29T00:43:45.063Z,1002.11
2024-02-29T00:44:45.084Z,1002.07
2024-02-29T00:45:45.128Z,1002.11
2024-02-29T00:46:45.115Z,1002.11
2024-02-29T00:47:45.041Z,1002.10
2024-02-29T00:48:45.040Z,1002.10
2024-02-29T00:49:45.019Z,1002.08
2024-02-29T00:50:45.008Z,1002.07
2024-02-29T00:51:45.108Z,1002.08
2024-02-29T00:52:44.979Z,1002.05
2024-02-29T00:53:44.995Z,1002.03
2024-02-29T00:54:45.015Z,1002.08
2024-02-29T00:55:44.967Z,1002.06
2024-02-29T00:56:44.988Z,1002.02
2024-02-29T00:57:44.988Z,1002.03
2024-02-29T00:58:44.957Z,1002.03
2024-02-29T00:59:44.942Z,1002.06
2024-02-29T01:00:45.078Z,1001.97
2024-02-29T01:01:45.091Z,1002.02
2024-02-29T01:02:44.976Z,1001.96
2024-02-29T01:03:44.929Z,1001.95
2024-02-29T01:04:44.919Z,1001.95
2024-02-29T01:05:44.925Z,1001.91
2024-02-29T01:06:44.933Z,1001.95
2024-02-29T01:07:45.078Z,1001.93
2024-02-29T01:08:44.904Z,1001.90
2024-02-29T01:09:44.936Z,1001.84
2024-02-29T01:10:44.934Z,1001.82
2024-02-29T01:11:44.894Z,1001.85
2024-02-29T01:12:44.984Z,1001.93
2024-02-29T01:13:44.867Z,1001.86
2024-02-29T01:14:44.865Z,1001.87
2024-02-29T01:15:44.923Z,1001.80
2024-02-29T01:16:44.864Z,1001.88
2024-02-29T01:17:44.838Z,1001.79
2024-02-29T01:18:44.847Z,1001.73
2024-02-29T01:19:44.857Z,1001.75
2024-02-29T01:20:44.826Z,1001.75
2024-02-29T01:21:44.841Z,1001.71
2024-02-29T01:22:44.827Z,1001.73
2024-02-29T01:23:44.803Z,1001.75
2024-02-29T01:24:44.835Z,1001.69
2024-02-29T01:25:45.796Z,1001.76
2024-02-29T01:26:44.788Z,1001.70
2024-02-29T01:27:44.869Z,1001.73
2024-02-29T01:28:44.815Z,1001.75
2024-02-29T01:29:44.778Z,1001.76
2024-02-29T01:30:44.859Z,1001.70
2024-02-29T01:31:44.767Z,1001.72
2024-02-29T01:32:44.762Z,1001.64
2024-02-29T01:33:44.754Z,1001.65
2024-02-29T01:34:44.722Z,1001.64
2024-02-29T01:35:44.716Z,1001.63
2024-02-29T01:36:44.747Z,1001.59
2024-02-29T01:37:44.720Z,1001.59
2024-02-29T01:38:44.690Z,1001.61
2024-02-29T01:39:44.775Z,1001.57
2024-02-29T01:40:44.711Z,1001.57
2024-02-29T01:41:44.668Z,1001.51
2024-02-29T01:42:44.755Z,1001.52
2024-02-29T01:43:44.658Z,1001.56
2024-02-29T01:44:44.740Z,1001.49
2024-02-29T01:45:44.732Z,1001.51
2024-02-29T01:46:44.688Z,1001.50
2024-02-29T01:47:44.683Z,1001.51
2024-02-29T01:48:44.628Z,1001.51
2024-02-29T01:49:44.639Z,1001.50
2024-02-29T01:50:44.661Z,1001.55
2024-02-29T01:51:44.648Z,1001.53
2024-02-29T01:52:44.627Z,1001.47
2024-02-29T01:53:44.601Z,1001.50
2024-02-29T01:54:45.630Z,1001.46
2024-02-29T01:55:44.608Z,1001.48
2024-02-29T01:56:44.614Z,1001.41
2024-02-29T01:57:44.621Z,1001.39
2024-02-29T01:58:44.569Z,1001.41
2024-02-29T01:59:44.569Z,1001.39
2024-02-29T02:00:44.609Z,1001.36
2024-02-29T02:01:44.669Z,1001.37
2024-02-29T02:02:44.542Z,1001.32
2024-02-29T02:03:44.610Z,1001.36
2024-02-29T02:04:44.583Z,1001.38
2024-02-29T02:05:44.531Z,1001.40
2024-02-29T02:06:44.524Z,1001.43
2024-02-29T02:07:44.543Z,1001.40
2024-02-29T02:08:44.511Z,1001.40
2024-02-29T02:09:44.519Z,1001.40
2024-02-29T02:10:44.609Z,1001.44
2024-02-29T02:11:44.540Z,1001.44
2024-02-29T02:12:44.808Z,1001.38
2024-02-29T02:13:44.507Z,1001.43
2024-02-29T02:14:44.485Z,1001.43
2024-02-29T02:15:44.510Z,1001.41
2024-02-29T02:16:44.463Z,1001.44
2024-02-29T02:17:44.484Z,1001.41
2024-02-29T02:18:44.519Z,1001.38
2024-02-29T02:19:44.468Z,1001.33
2024-02-29T02:20:44.466Z,1001.37
2024-02-29T02:21:44.476Z,1001.35
2024-02-29T02:22:44.414Z,1001.34
2024-02-29T02:23:44.435Z,1001.29
2024-02-29T02:24:44.442Z,1001.33
2024-02-29T02:25:44.410Z,1001.30
2024-02-29T02:26:44.412Z,1001.24
2024-02-29T02:27:44.482Z,1001.25
2024-02-29T02:28:44.438Z,1001.28
2024-02-29T02:29:44.489Z,1001.30
2024-02-29T02:30:44.384Z,1001.30
2024-02-29T02:31:44.401Z,1001.27
2024-02-29T02:32:44.425Z,1001.29
2024-02-29T02:33:44.444Z,1001.23
2024-02-29T02:34:44.396Z,1001.22
2024-02-29T02:35:44.361Z,1001.16
2024-02-29T02:36:44.372Z,1001.21
2024-02-29T02:37:44.368Z,1001.16
2024-02-29T02:38:44.360Z,1001.15
2024-02-29T02:39:44.395Z,1001.15
2024-02-29T02:40:44.336Z,1001.06
2024-02-29T02:41:44.331Z,1001.14
2024-02-29T02:42:45.399Z,1001.05
2024-02-29T02:43:44.330Z,1001.04
2024-02-29T02:44:44.341Z,1001.03
2024-02-29T02:45:44.337Z,1001.02
2024-02-29T02:46:44.272Z,1001.00
2024-02-29T02:47:44.329Z,1001.00
2024-02-29T02:48:44.297Z,1000.94
2024-02-29T02:49:44.261Z,1001.00
2024-02-29T02:50:44.512Z,1000.96
2024-02-29T02:51:44.316Z,1000.95
2024-02-29T02:52:44.277Z,1000.92
2024-02-29T02:53:44.273Z,1000.90
2024-02-29T02:54:44.280Z,1000.90
2024-02-29T02:55:44.253Z,1000.87
2024-02-29T02:56:44.279Z,1000.89
2024-02-29T02:57:44.231Z,1000.88
2024-02-29T02:58:44.246Z,1000.79
2024-02-29T02:59:44.244Z,1000.83
2024-02-29T03:00:44.272Z,1000.84
2024-02-29T03:01:44.302Z,1000.80
2024-02-29T03:02:44.220Z,1000.80
2024-02-29T03:03:44.213Z,1000.83
2024-02-29T03:04:44.204Z,1000.85
2024-02-29T03:05:44.178Z,1000.79
2024-02-29T03:06:45.253Z,1000.79
2024-02-29T03:07:44.197Z,1000.78
2024-02-29T03:08:44.168Z,1000.81
2024-02-29T03:09:44.241Z,1000.81
2024-02-29T03:10:44.190Z,1000.72
2024-02-29T03:11:44.174Z,1000.76
2024-02-29T03:12:44.170Z,1000.70
2024-02-29T03:13:44.179Z,1000.76
2024-02-29T03:14:44.155Z,1000.76
2024-02-29T03:15:44.203Z,1000.71
2024-02-29T03:16:44.151Z,1000.65
2024-02-29T03:17:44.144Z,1000.62
2024-02-29T03:18:44.159Z,1000.64
2024-02-29T03:19:44.112Z,1000.59
2024-02-29T03:20:44.195Z,1000.58
2024-02-29T03:21:44.170Z,1000.51
2024-02-29T03:22:44.104Z,1000.55
2024-02-29T03:23:44.131Z,1000.53
2024-02-29T03:24:44.119Z,1000.49
2024-02-29T03:25:45.080Z,1000.45
2024-02-29T03:26:44.084Z,1000.46
2024-02-29T03:27:44.121Z,1000.43
2024-02-29T03:28:44.079Z,1000.41
2024-02-29T03:29:44.072Z,1000.44
2024-02-29T03:30:44.060Z,1000.48
2024-02-29T03:31:44.052Z,1000.42
2024-02-29T03:32:44.095Z,1000.49
2024-02-29T03:33:44.117Z,1000.47
2024-02-29T03:34:44.046Z,1000.48
2024-02-29T03:35:44.069Z,1000.51
2024-02-29T03:36:44.097Z,1000.44
2024-02-29T03:37:44.012Z,1000.37
2024-02-29T03:38:44.026Z,1000.40
2024-02-29T03:39:44.036Z,1000.40
2024-02-29T03:40:44.000Z,1000.44
2024-02-29T03:41:44.001Z,1000.46
2024-02-29T03:42:44.073Z,1000.46
2024-02-29T03:43:43.995Z,1000.47
2024-02-29T03:44:44.015Z,1000.40
2024-02-29T03:45:44.004Z,1000.40
2024-02-29T03:46:43.976Z,1000.45
2024-02-29T03:47:44.015Z,1000.40
2024-02-29T03:48:43.973Z,1000.40
2024-02-29T03:49:43.987Z,1000.32
2024-02-29T03:50:43.958Z,1000.36
2024-02-29T03:51:44.002Z,1000.34
2024-02-29T03:52:43.951Z,1000.37
2024-02-29T03:53:43.932Z,1000.33
2024-02-29T03:54:43.942Z,1000.32
2024-02-29T03:55:44.776Z,1000.27
2024-02-29T03:56:43.928Z,1000.32
2024-02-29T03:57:43.911Z,1000.33
2024-02-29T03:58:43.910Z,1000.23
2024-02-29T03:59:43.895Z,1000.30
2024-02-29T04:00:43.902Z,1000.29
2024-02-29T04:01:44.030Z,1000.23
2024-02-29T04:02:43.877Z,1000.24
2024-02-29T04:03:43.933Z,1000.21
2024-02-29T04:04:43.868Z,1000.20
2024-02-29T04:05:43.901Z,1000.21
2024-02-29T04:06:43.945Z,1000.27
2024-02-29T04:07:43.923Z,1000.25
2024-02-29T04:08:43.865Z,1000.24
2024-02-29T04:09:43.901Z,1000.24
2024-02-29T04:10:43.881Z,1000.22
2024-02-29T04:11:43.827Z,1000.26
2024-02-29T04:12:43.845Z,1000.25
2024-02-29T04:13:43.827Z,1000.17
2024-02-29T04:14:43.826Z,1000.22
2024-02-29T04:15:44.782Z,1000.19
2024-02-29T04:16:43.830Z,1000.27
2024-02-29T04:17:43.843Z,1000.26
2024-02-29T04:18:43.807Z,1000.25
2024-02-29T04:19:43.770Z,1000.27
2024-02-29T04:20:43.788Z,1000.27
2024-02-29T04:21:43.876Z,1000.21
2024-02-29T04:22:43.790Z,1000.17
2024-02-29T04:23:43.817Z,1000.13
2024-02-29T04:24:43.922Z,1000.20
2024-02-29T04:25:43.772Z,1000.11
2024-02-29T04:26:43.758Z,1000.17
2024-02-29T04:27:43.761Z,1000.17
2024-02-29T04:28:43.736Z,1000.11
2024-02-29T04:29:43.747Z,1000.11
2024-02-29T04:30:43.903Z,1000.06
2024-02-29T04:31:43.746Z,1000.12
2024-02-29T04:32:43.777Z,1000.12
2024-02-29T04:33:43.727Z,1000.11
2024-02-29T04:34:43.685Z,1000.07
2024-02-29T04:35:43.710Z,1000.09
2024-02-29T04:36:43.778Z,999.98
2024-02-29T04:37:43.684Z,999.98
2024-02-29T04:38:43.686Z,999.97
2024-02-29T04:39:43.698Z,1000.04
2024-02-29T04:40:43.676Z,1000.00
2024-02-29T04:41:43.695Z,1000.00
2024-02-29T04:42:43.675Z,1000.01
2024-02-29T04:43:43.618Z,1000.00
2024-02-29T04:44:44.628Z,999.98
2024-02-29T04:45:43.662Z,999.87
2024-02-29T04:46:43.679Z,999.93
2024-02-29T04:47:43.649Z,999.92
2024-02-29T04:48:43.733Z,999.91
2024-02-29T04:49:43.616Z,999.94
2024-02-29T04:50:43.608Z,999.92
2024-02-29T04:51:43.691Z,999.96
2024-02-29T04:52:43.618Z,999.91
2024-02-29T04:53:43.609Z,999.92
2024-02-29T04:54:43.645Z,999.92
2024-02-29T04:55:43.578Z,999.93
2024-02-29T04:56:43.569Z,999.91
2024-02-29T04:57:43.607Z,999.89
2024-02-29T04:58:43.634Z,999.88
2024-02-29T04:59:43.554Z,999.87
2024-02-29T05:00:43.672Z,999.82
2024-02-29T05:01:43.641Z,999.79
2024-02-29T05:02:43.548Z,999.80
2024-02-29T05:03:43.588Z,999.76
2024-02-29T05:04:43.528Z,999.79
2024-02-29T05:05:43.528Z,999.79
2024-02-29T05:06:43.562Z,999.78
2024-02-29T05:07:43.543Z,999.74
2024-02-29T05:08:43.561Z,999.77
2024-02-29T05:09:43.555Z,999.72
2024-02-29T05:10:43.539Z,999.75
2024-02-29T05:11:43.479Z,999.73
2024-02-29T05:12:43.504Z,999.72
2024-02-29T05:13:43.497Z,999.68
2024-02-29T05:14:43.551Z,999.72
2024-02-29T05:15:43.529Z,999.73
2024-02-29T05:16:43.487Z,999.64
2024-02-29T05:17:43.502Z,999.66
2024-02-29T05:18:43.531Z,999.69
2024-02-29T05:19:43.495Z,999.68
2024-02-29T05:20:43.532Z,999.67
2024-02-29T05:21:43.486Z,999.72
2024-02-29T05:22:43.437Z,999.70
2024-02-29T05:23:43.466Z,999.68
2024-02-29T05:24:43.494Z,999.71
2024-02-29T05:25:43.464Z,999.68
2024-02-29T05:26:43.760Z,999.69
2024-02-29T05:27:43.447Z,999.70
2024-02-29T05:28:43.427Z,999.67
2024-02-29T05:29:44.265Z,999.67
2024-02-29T05:30:43.462Z,999.76
2024-02-29T05:31:43.439Z,999.60
2024-02-29T05:32:43.448Z,999.67
2024-02-29T05:33:43.498Z,999.64
2024-02-29T05:34:43.386Z,999.60
2024-02-29T05:35:43.391Z,999.56
2024-02-29T05:36:43.497Z,999.50
2024-02-29T05:37:43.371Z,999.47
2024-02-29T05:38:43.379Z,999.49
2024-02-29T05:39:43.492Z,999.48
2024-02-29T05:40:43.368Z,999.51
2024-02-29T05:41:43.342Z,999.52
2024-02-29T05:42:43.420Z,999.53
2024-02-29T05:43:43.356Z,999.54
2024-02-29T05:44:43.381Z,999.51
2024-02-29T05:45:43.383Z,999.52
2024-02-29T05:46:43.336Z,999.52
2024-02-29T05:47:43.375Z,999.52
2024-02-29T05:48:43.455Z,999.48
2024-02-29T05:49:43.344Z,999.45
2024-02-29T05:50:43.340Z,999.49
2024-02-29T05:51:43.418Z,999.56
2024-02-29T05:52:43.356Z,999.47
2024-02-29T05:53:43.376Z,999.54
2024-02-29T05:54:43.347Z,999.52
2024-02-29T05:55:43.436Z,999.53
2024-02-29T05:56:43.288Z,999.55
2024-02-29T05:57:43.556Z,999.57
2024-02-29T05:58:43.276Z,999.53
2024-02-29T05:59:43.295Z,999.46
2024-02-29T06:00:43.344Z,999.53
2024-02-29T06:01:43.353Z,999.50
2024-02-29T06:02:43.312Z,999.57
2024-02-29T06:03:43.374Z,999.51
2024-02-29T06:04:43.256Z,999.51
2024-02-29T06:05:43.249Z,999.55
2024-02-29T06:06:43.250Z,999.55
2024-02-29T06:07:43.238Z,999.46
2024-02-29T06:08:43.215Z,999.49
2024-02-29T06:09:43.237Z,999.51
2024-02-29T06:10:43.228Z,999.61
2024-02-29T06:11:43.190Z,999.48
2024-02-29T06:12:43.242Z,999.51
2024-02-29T06:13:43.236Z,999.53
2024-02-29T06:14:43.208Z,999.49
2024-02-29T06:15:43.444Z,999.52
2024-02-29T06:16:43.185Z,999.50
2024-02-29T06:17:43.207Z,999.49
2024-02-29T06:18:43.186Z,999.44
2024-02-29T06:19:43.142Z,999.44
2024-02-29T06:20:43.263Z,999.31
2024-02-29T06:21:43.188Z,999.41
2024-02-29T06:22:43.153Z,999.35
2024-02-29T06:23:43.250Z,999.38
2024-02-29T06:24:43.124Z,999.35
2024-02-29T06:25:43.132Z,999.36
2024-02-29T06:26:43.136Z,999.34
2024-02-29T06:27:43.123Z,999.31
2024-02-29T06:28:43.112Z,999.38
2024-02-29T06:29:43.119Z,999.36
2024-02-29T06:30:43.184Z,999.33
2024-02-29T06:31:43.125Z,999.39
2024-02-29T06:32:43.129Z,999.38
2024-02-29T06:33:43.132Z,999.41
2024-02-29T06:34:43.092Z,999.42
2024-02-29T06:35:43.102Z,999.47
2024-02-29T06:36:43.126Z,999.45
2024-02-29T06:37:43.076Z,999.43
2024-02-29T06:38:43.078Z,999.46
2024-02-29T06:39:43.120Z,999.47
2024-02-29T06:40:43.117Z,999.47
2024-02-29T06:41:43.087Z,999.48
2024-02-29T06:42:43.173Z,999.46
2024-02-29T06:43:43.048Z,999.40
2024-02-29T06:44:44.033Z,999.43
2024-02-29T06:45:43.051Z,999.43
2024-02-29T06:46:43.064Z,999.41
2024-02-29T06:47:43.779Z,999.44
2024-02-29T06:48:43.035Z,999.48
2024-02-29T06:49:42.982Z,999.44
2024-02-29T06:50:43.049Z,999.36
2024-02-29T06:51:43.018Z,999.43
2024-02-29T06:52:42.953Z,999.42
2024-02-29T06:53:42.974Z,999.40
2024-02-29T06:54:43.015Z,999.45
2024-02-29T06:55:42.966Z,999.42
2024-02-29T06:56:42.966Z,999.44
2024-02-29T06:57:42.957Z,999.43
2024-02-29T06:58:42.942Z,999.46
2024-02-29T06:59:42.943Z,999.38
2024-02-29T07:00:42.989Z,999.39
2024-02-29T07:01:43.001Z,999.42
2024-02-29T07:02:42.931Z,999.43
2024-02-29T07:03:42.968Z,999.39
2024-02-29T07:04:42.943Z,999.39
2024-02-29T07:05:42.938Z,999.30
2024-02-29T07:06:43.112Z,999.25
2024-02-29T07:07:42.929Z,999.27
2024-02-29T07:08:42.948Z,999.27
2024-02-29T07:09:42.893Z,999.30
2024-02-29T07:10:42.886Z,999.20
2024-02-29T07:11:43.020Z,999.29
2024-02-29T07:12:42.918Z,999.25
2024-02-29T07:13:42.881Z,999.21
2024-02-29T07:14:42.886Z,999.17
2024-02-29T07:15:42.899Z,999.17
2024-02-29T07:16:42.842Z,999.15
2024-02-29T07:17:42.857Z,999.11
2024-02-29T07:18:42.964Z,999.23
2024-02-29T07:19:42.835Z,999.28
2024-02-29T07:20:42.913Z,999.16
2024-02-29T07:21:42.823Z,999.14
2024-02-29T07:22:42.876Z,999.14
2024-02-29T07:23:42.785Z,999.18
2024-02-29T07:24:42.819Z,999.16
2024-02-29T07:25:42.790Z,999.08
2024-02-29T07:26:42.857Z,999.16
2024-02-29T07:27:42.816Z,999.12
2024-02-29T07:28:42.783Z,999.06
2024-02-29T07:29:42.766Z,999.02
2024-02-29T07:30:42.807Z,999.04
2024-02-29T07:31:42.774Z,999.02
2024-02-29T07:32:42.806Z,998.99
2024-02-29T07:33:42.846Z,999.04
2024-02-29T07:34:42.799Z,999.04
2024-02-29T07:35:42.774Z,998.96
2024-02-29T07:36:42.810Z,999.02
2024-02-29T07:37:42.789Z,999.00
2024-02-29T07:38:42.751Z,998.99
2024-02-29T07:39:42.750Z,998.97
2024-02-29T07:40:42.756Z,999.01
2024-02-29T07:41:42.709Z,998.98
2024-02-29T07:42:42.790Z,999.01
2024-02-29T07:43:42.693Z,999.00
2024-02-29T07:44:42.704Z,998.95
2024-02-29T07:45:42.730Z,999.00
2024-02-29T07:46:42.681Z,999.04
2024-02-29T07:47:42.714Z,998.99
2024-02-29T07:48:42.682Z,998.96
2024-02-29T07:49:42.633Z,998.96
2024-02-29T07:50:42.658Z,998.95
2024-02-29T07:51:42.719Z,998.90
2024-02-29T07:52:42.699Z,998.90
2024-02-29T07:53:42.637Z,998.87
2024-02-29T07:54:42.661Z,998.95
2024-02-29T07:55:42.647Z,998.88
2024-02-29T07:56:42.679Z,998.85
2024-02-29T07:57:42.647Z,998.80
2024-02-29T07:58:42.602Z,998.88
2024-02-29T07:59:42.594Z,998.89
2024-02-29T08:00:42.627Z,998.92
2024-02-29T08:01:42.605Z,998.88
2024-02-29T08:02:42.574Z,998.87
2024-02-29T08:03:42.601Z,998.86
2024-02-29T08:04:42.621Z,998.82
2024-02-29T08:05:42.559Z,998.81
2024-02-29T08:06:42.556Z,998.88
2024-02-29T08:07:42.567Z,998.77
2024-02-29T08:08:42.537Z,998.84
2024-02-29T08:09:42.591Z,998.79
2024-02-29T08:10:42.533Z,998.80
2024-02-29T08:11:42.597Z,998.78
2024-02-29T08:12:42.575Z,998.79
2024-02-29T08:13:42.534Z,998.77
2024-02-29T08:14:42.513Z,998.80
2024-02-29T08:15:42.547Z,998.78
2024-02-29T08:16:42.521Z,998.82
2024-02-29T08:17:42.505Z,998.79
2024-02-29T08:18:43.168Z,998.74
2024-02-29T08:19:42.513Z,998.78
2024-02-29T08:20:42.541Z,998.73
2024-02-29T08:21:42.490Z,998.70
2024-02-29T08:22:42.487Z,998.62
2024-02-29T08:23:42.524Z,998.64
2024-02-29T08:24:42.533Z,998.64
2024-02-29T08:25:42.466Z,998.67
2024-02-29T08:26:42.437Z,998.66
2024-02-29T08:27:42.540Z,998.65
2024-02-29T08:28:42.539Z,998.66
2024-02-29T08:29:42.495Z,998.67
2024-02-29T08:30:42.476Z,998.63
2024-02-29T08:31:42.571Z,998.62
2024-02-29T08:32:42.506Z,998.73
2024-02-29T08:33:42.538Z,998.63
2024-02-29T08:34:42.515Z,998.66
2024-02-29T08:35:42.399Z,998.71
2024-02-29T08:36:42.428Z,998.68
2024-02-29T08:37:42.372Z,998.64
2024-02-29T08:38:42.366Z,998.57
2024-02-29T08:39:42.694Z,998.63
2024-02-29T08:40:42.551Z,998.62
2024-02-29T08:41:42.359Z,998.59
2024-02-29T08:42:42.403Z,998.58
2024-02-29T08:43:42.340Z,998.61
2024-02-29T08:44:42.346Z,998.63
2024-02-29T08:45:42.379Z,998.71
2024-02-29T08:46:42.321Z,998.65
2024-02-29T08:47:42.440Z,998.60
2024-02-29T08:48:42.346Z,998.61
2024-02-29T08:49:42.304Z,998.55
2024-02-29T08:50:42.334Z,998.62
2024-02-29T08:51:42.390Z,998.54
2024-02-29T08:52:42.286Z,998.57
2024-02-29T08:53:42.282Z,998.59
2024-02-29T08:54:42.275Z,998.52
2024-02-29T08:55:42.285Z,998.49
2024-02-29T08:56:42.264Z,998.52
2024-02-29T08:57:42.289Z,998.50
2024-02-29T08:58:42.243Z,998.42
2024-02-29T08:59:42.229Z,998.48
2024-02-29T09:00:42.295Z,998.39
2024-02-29T09:01:42.313Z,998.42
2024-02-29T09:02:42.232Z,998.47
2024-02-29T09:03:42.214Z,998.37
2024-02-29T09:04:42.244Z,998.36
2024-02-29T09:05:42.194Z,998.37
2024-02-29T09:06:42.443Z,998.39
2024-02-29T09:07:42.229Z,998.35
2024-02-29T09:08:42.186Z,998.37
2024-02-29T09:09:42.213Z,998.37
2024-02-29T09:10:42.167Z,998.37
2024-02-29T09:11:42.180Z,998.33
2024-02-29T09:12:42.254Z,998.36
2024-02-29T09:13:43.264Z,998.33
2024-02-29T09:14:42.191Z,998.31
2024-02-29T09:15:42.183Z,998.36
2024-02-29T09:16:42.122Z,998.35
2024-02-29T09:17:42.159Z,998.31
2024-02-29T09:18:42.159Z,998.23
2024-02-29T09:19:42.106Z,998.27
2024-02-29T09:20:42.103Z,998.27
2024-02-29T09:21:42.117Z,998.20
2024-02-29T09:22:42.105Z,998.21
2024-02-29T09:23:42.153Z,998.12
2024-02-29T09:24:42.127Z,998.09
2024-02-29T09:25:42.081Z,998.05
2024-02-29T09:26:42.077Z,998.05
2024-02-29T09:27:42.076Z,998.05
2024-02-29T09:28:42.118Z,997.98
2024-02-29T09:29:42.067Z,997.93
2024-02-29T09:30:42.095Z,997.97
2024-02-29T09:31:42.039Z,997.90
2024-02-29T09:32:42.051Z,997.89
2024-02-29T09:33:42.169Z,997.84
2024-02-29T09:34:46.068Z,997.83
2024-02-29T09:35:44.054Z,997.87
2024-02-29T09:36:42.005Z,997.90
2024-02-29T09:37:41.997Z,997.89
2024-02-29T09:38:41.996Z,997.90
2024-02-29T09:39:42.069Z,997.86
2024-02-29T09:40:49.199Z,997.85
2024-02-29T09:41:59.636Z,997.88
2024-02-29T09:42:42.986Z,997.82
2024-02-29T09:43:41.970Z,997.85
2024-02-29T09:44:41.962Z,997.79
2024-02-29T09:45:41.980Z,997.78
2024-02-29T09:46:41.963Z,997.76
2024-02-29T09:47:42.970Z,997.67
2024-02-29T09:48:41.928Z,997.77
2024-02-29T09:49:42.325Z,997.72
2024-02-29T09:50:42.946Z,997.75
2024-02-29T09:51:41.964Z,997.68
2024-02-29T09:52:41.905Z,997.71
2024-02-29T09:53:41.903Z,997.76
2024-02-29T09:54:41.935Z,997.68
2024-02-29T09:55:41.919Z,997.69
2024-02-29T09:56:41.908Z,997.73
2024-02-29T09:57:41.923Z,997.67
2024-02-29T09:58:41.845Z,997.60
2024-02-29T09:59:41.911Z,997.67
2024-02-29T10:00:41.946Z,997.59
2024-02-29T10:01:42.001Z,997.65
2024-02-29T10:02:41.849Z,997.59
2024-02-29T10:03:41.852Z,997.58
2024-02-29T10:04:41.822Z,997.58
2024-02-29T10:05:41.846Z,997.60
2024-02-29T10:06:41.863Z,997.54
2024-02-29T10:07:41.830Z,997.56
2024-02-29T10:08:41.805Z,997.62
2024-02-29T10:09:41.824Z,997.53
2024-02-29T10:10:41.808Z,997.51
2024-02-29T10:11:42.805Z,997.53
2024-02-29T10:12:41.783Z,997.50
2024-02-29T10:13:41.807Z,997.48
2024-02-29T10:14:41.748Z,997.50
2024-02-29T10:15:41.792Z,997.42
2024-02-29T10:16:42.768Z,997.43
2024-02-29T10:17:41.798Z,997.49
2024-02-29T10:18:41.742Z,997.28
2024-02-29T10:19:41.739Z,997.43
2024-02-29T10:20:41.733Z,997.42
2024-02-29T10:21:41.724Z,997.30
2024-02-29T10:22:41.722Z,997.38
2024-02-29T10:23:41.724Z,997.41
2024-02-29T10:24:41.710Z,997.33
2024-02-29T10:25:41.672Z,997.22
2024-02-29T10:26:41.691Z,997.31
2024-02-29T10:27:41.932Z,997.30
2024-02-29T10:28:41.692Z,997.24
2024-02-29T10:29:41.687Z,997.31
2024-02-29T10:30:41.741Z,997.23
2024-02-29T10:31:41.632Z,997.30
2024-02-29T10:32:41.672Z,997.23
2024-02-29T10:33:41.673Z,997.24
2024-02-29T10:34:41.641Z,997.24
2024-02-29T10:35:41.623Z,997.20
2024-02-29T10:36:41.771Z,997.21
2024-02-29T10:37:41.605Z,997.14
2024-02-29T10:38:41.594Z,997.12
2024-02-29T10:39:41.629Z,997.08
2024-02-29T10:40:41.577Z,997.06
2024-02-29T10:41:41.605Z,997.07
2024-02-29T10:42:41.610Z,997.22
2024-02-29T10:43:41.589Z,997.14
2024-02-29T10:44:41.580Z,997.11
2024-02-29T10:45:41.613Z,997.10
2024-02-29T10:46:41.585Z,997.00
2024-02-29T10:47:41.600Z,997.03
2024-02-29T10:48:41.577Z,996.97
2024-02-29T10:49:41.553Z,997.05
2024-02-29T10:50:41.522Z,997.01
2024-02-29T10:51:41.548Z,996.99
2024-02-29T10:52:41.532Z,997.01
2024-02-29T10:53:41.537Z,997.01
2024-02-29T10:54:41.542Z,996.96
2024-02-29T10:55:41.540Z,996.91
2024-02-29T10:56:43.239Z,996.85
2024-02-29T10:57:42.513Z,996.88
2024-02-29T10:58:41.501Z,996.88
2024-02-29T10:59:41.471Z,996.88
2024-02-29T11:00:41.541Z,996.78
2024-02-29T11:01:41.543Z,996.78
2024-02-29T11:02:41.469Z,996.75
2024-02-29T11:03:41.493Z,996.73
2024-02-29T11:04:42.211Z,996.66
2024-02-29T11:05:41.454Z,996.66
2024-02-29T11:06:41.463Z,996.70
2024-02-29T11:07:41.503Z,996.70
2024-02-29T11:08:41.650Z,996.66
2024-02-29T11:09:41.542Z,996.60
2024-02-29T11:10:41.470Z,996.53
2024-02-29T11:11:41.412Z,996.53
2024-02-29T11:12:41.533Z,996.48
2024-02-29T11:13:41.388Z,996.48
2024-02-29T11:14:41.409Z,996.36
2024-02-29T11:15:41.578Z,996.46
2024-02-29T11:16:41.389Z,996.41
2024-02-29T11:17:42.412Z,996.39
2024-02-29T11:18:41.403Z,996.43
2024-02-29T11:19:47.988Z,996.37
2024-02-29T11:20:43.359Z,996.35
2024-02-29T11:21:41.409Z,996.37
2024-02-29T11:22:41.340Z,996.31
2024-02-29T11:23:41.332Z,996.34
2024-02-29T11:24:41.580Z,996.31
2024-02-29T11:25:41.432Z,996.24
2024-02-29T11:26:41.297Z,996.20
2024-02-29T11:27:41.333Z,996.20
2024-02-29T11:28:41.292Z,996.16
2024-02-29T11:29:41.344Z,996.22
2024-02-29T11:30:41.341Z,996.13
2024-02-29T11:31:41.259Z,996.11
2024-02-29T11:32:41.260Z,996.08
2024-02-29T11:33:41.299Z,996.15
2024-02-29T11:34:41.250Z,996.02
2024-02-29T11:35:41.299Z,996.09
2024-02-29T11:36:41.287Z,996.00
2024-02-29T11:37:41.303Z,996.05
2024-02-29T11:38:41.296Z,996.04
2024-02-29T11:39:41.252Z,995.93
2024-02-29T11:40:41.236Z,995.97
2024-02-29T11:41:41.301Z,995.92
2024-02-29T11:42:41.240Z,995.89
2024-02-29T11:43:41.206Z,995.89
2024-02-29T11:44:41.195Z,995.86
2024-02-29T11:45:41.212Z,995.89
2024-02-29T11:46:41.173Z,995.81
2024-02-29T11:47:41.289Z,995.72
2024-02-29T11:48:41.208Z,995.72
2024-02-29T11:49:41.177Z,995.75
2024-02-29T11:50:41.173Z,995.77
2024-02-29T11:51:41.177Z,995.72
2024-02-29T11:52:41.153Z,995.68
2024-02-29T11:53:41.160Z,995.65
2024-02-29T11:54:41.162Z,995.63
2024-02-29T11:55:41.159Z,995.65
2024-02-29T11:56:41.158Z,995.62
2024-02-29T11:57:42.154Z,995.59
2024-02-29T11:58:41.128Z,995.60
2024-02-29T11:59:41.117Z,995.58
2024-02-29T12:00:41.188Z,995.50
2024-02-29T12:01:41.183Z,995.52
2024-02-29T12:02:41.097Z,995.50
2024-02-29T12:03:41.258Z,995.43
2024-02-29T12:04:41.075Z,995.41
2024-02-29T12:05:41.107Z,995.36
2024-02-29T12:06:41.172Z,995.41
2024-02-29T12:07:41.073Z,995.41
2024-02-29T12:08:41.158Z,995.38
2024-02-29T12:09:41.082Z,995.35
2024-02-29T12:10:49.256Z,995.35
2024-02-29T12:11:42.087Z,995.38
2024-02-29T12:12:41.174Z,995.41
2024-02-29T12:13:41.051Z,995.30
2024-02-29T12:14:41.045Z,995.20
2024-02-29T12:15:41.191Z,995.12
2024-02-29T12:16:41.044Z,995.16
2024-02-29T12:17:41.066Z,995.22
2024-02-29T12:18:41.040Z,995.12
2024-02-29T12:19:41.001Z,995.14